| time (UTC) | temp C | wind direction | speed KPH | gust KPH | rain 1hr cm | rain 24hr cm | rain mn cm | humidity % | barometer mb |
| 20260510061129 | 24 | 111 | 9.7 | 12.9 | 0.00 | 0.00 | 0.00 | 71 | 1012.8 |
| 20260510060625 | 24 | 102 | 14.5 | 17.7 | 0.00 | 0.00 | 0.00 | 71 | 1012.8 |
| 20260510060122 | 24 | 107 | 14.5 | 17.7 | 0.00 | 0.00 | 0.00 | 70 | 1012.8 |
| 20260510055618 | 24 | 111 | 16.1 | 20.9 | 0.00 | 0.00 | 0.00 | 70 | 1012.8 |
| 20260510055116 | 25 | 106 | 14.5 | 17.7 | 0.00 | 0.00 | 0.00 | 69 | 1012.8 |
| 20260510054611 | 25 | 105 | 17.7 | 22.5 | 0.00 | 0.00 | 0.00 | 68 | 1012.8 |
| 20260510054107 | 25 | 107 | 12.9 | 17.7 | 0.00 | 0.00 | 0.00 | 68 | 1012.8 |
| 20260510053606 | 25 | 106 | 17.7 | 22.5 | 0.00 | 0.00 | 0.00 | 68 | 1012.8 |
| 20260510053103 | 25 | 114 | 9.7 | 12.9 | 0.00 | 0.00 | 0.00 | 68 | 1012.8 |
| 20260510052559 | 25 | 95 | 11.3 | 17.7 | 0.00 | 0.00 | 0.00 | 68 | 1012.8 |
| 20260510052056 | 25 | 99 | 9.7 | 14.5 | 0.00 | 0.00 | 0.00 | 68 | 1012.8 |
| 20260510051551 | 25 | 109 | 11.3 | 12.9 | 0.00 | 0.00 | 0.00 | 69 | 1012.8 |
| 20260510051048 | 25 | 104 | 9.7 | 12.9 | 0.00 | 0.00 | 0.00 | 68 | 1012.8 |
| 20260510050546 | 25 | 109 | 14.5 | 16.1 | 0.00 | 0.00 | 0.00 | 68 | 1012.8 |
| 20260510050043 | 25 | 99 | 9.7 | 14.5 | 0.00 | 0.36 | 0.36 | 69 | 1012.8 |
| 20260510045540 | 25 | 112 | 6.4 | 9.7 | 0.00 | 0.36 | 0.36 | 69 | 1012.8 |
| 20260510045035 | 25 | 104 | 9.7 | 12.9 | 0.00 | 0.36 | 0.36 | 70 | 1012.8 |
| 20260510044532 | 25 | 113 | 9.7 | 11.3 | 0.00 | 0.36 | 0.36 | 69 | 1012.5 |
| 20260510044030 | 25 | 100 | 6.4 | 9.7 | 0.00 | 0.36 | 0.36 | 70 | 1012.8 |
| 20260510043525 | 25 | 81 | 3.2 | 8.0 | 0.00 | 0.36 | 0.36 | 71 | 1012.8 |
| 20260510043021 | 25 | 86 | 8.0 | 9.7 | 0.00 | 0.36 | 0.36 | 72 | 1012.5 |
| 20260510042515 | 25 | 105 | 9.7 | 12.9 | 0.00 | 0.36 | 0.36 | 72 | 1012.5 |
| 20260510042010 | 26 | 107 | 9.7 | 11.3 | 0.00 | 0.36 | 0.36 | 72 | 1012.5 |
| 20260510041508 | 26 | 87 | 4.8 | 9.7 | 0.00 | 0.36 | 0.36 | 72 | 1012.8 |
| 20260510041005 | 26 | 101 | 11.3 | 14.5 | 0.00 | 0.36 | 0.36 | 71 | 1012.5 |
| 20260510040501 | 26 | 119 | 9.7 | 12.9 | 0.00 | 0.36 | 0.36 | 69 | 1012.5 |
| 20260510035957 | 26 | 115 | 8.0 | 11.3 | 0.00 | 0.36 | 0.36 | 67 | 1012.5 |
| 20260510035454 | 26 | 110 | 11.3 | 14.5 | 0.00 | 0.36 | 0.36 | 65 | 1012.5 |
| 20260510034953 | 27 | 112 | 9.7 | 14.5 | 0.00 | 0.36 | 0.36 | 65 | 1012.1 |
| 20260510034453 | 26 | 112 | 9.7 | 11.3 | 0.00 | 0.36 | 0.36 | 66 | 1012.1 |
| 20260510033948 | 26 | 109 | 8.0 | 11.3 | 0.00 | 0.36 | 0.36 | 66 | 1012.1 |
| 20260510033444 | 27 | 115 | 9.7 | 12.9 | 0.00 | 0.36 | 0.36 | 66 | 1012.1 |
| 20260510032942 | 27 | 109 | 12.9 | 14.5 | 0.00 | 0.36 | 0.36 | 67 | 1012.1 |
| 20260510032439 | 27 | 103 | 6.4 | 11.3 | 0.00 | 0.36 | 0.36 | 67 | 1012.1 |
| 20260510031939 | 27 | 89 | 4.8 | 8.0 | 0.00 | 0.36 | 0.36 | 66 | 1012.1 |
| 20260510031435 | 27 | 106 | 12.9 | 16.1 | 0.00 | 0.36 | 0.36 | 66 | 1011.8 |
| 20260510030930 | 27 | 102 | 9.7 | 14.5 | 0.00 | 0.36 | 0.36 | 67 | 1011.8 |
| 20260510030426 | 27 | 104 | 6.4 | 12.9 | 0.00 | 0.36 | 0.36 | 69 | 1011.8 |
| 20260510025924 | 27 | 117 | 11.3 | 16.1 | 0.00 | 0.36 | 0.36 | 68 | 1011.8 |
| 20260510025421 | 27 | 113 | 17.7 | 19.3 | 0.00 | 0.36 | 0.36 | 68 | 1011.8 |
| 20260510024918 | 27 | 106 | 17.7 | 19.3 | 0.00 | 0.36 | 0.36 | 69 | 1011.4 |
| 20260510024415 | 27 | 109 | 16.1 | 19.3 | 0.00 | 0.36 | 0.36 | 70 | 1011.4 |
| 20260510023911 | 27 | 97 | 11.3 | 16.1 | 0.00 | 0.36 | 0.36 | 71 | 1011.4 |
| 20260510023407 | 27 | 109 | 14.5 | 17.7 | 0.00 | 0.36 | 0.36 | 71 | 1011.4 |
| 20260510022904 | 27 | 111 | 14.5 | 17.7 | 0.00 | 0.36 | 0.36 | 71 | 1011.4 |
| 20260510022403 | 27 | 106 | 14.5 | 17.7 | 0.00 | 0.36 | 0.36 | 71 | 1011.1 |
| 20260510021902 | 27 | 112 | 16.1 | 20.9 | 0.00 | 0.36 | 0.36 | 71 | 1011.1 |
| 20260510021401 | 27 | 101 | 14.5 | 20.9 | 0.00 | 0.36 | 0.36 | 71 | 1011.1 |
| 20260510020857 | 27 | 113 | 14.5 | 16.1 | 0.00 | 0.36 | 0.36 | 71 | 1011.1 |
| 20260510020352 | 27 | 107 | 16.1 | 22.5 | 0.00 | 0.36 | 0.36 | 71 | 1011.1 |
| 20260510015847 | 28 | 116 | 16.1 | 17.7 | 0.00 | 0.36 | 0.36 | 71 | 1011.1 |
| 20260510015344 | 28 | 89 | 11.3 | 16.1 | 0.00 | 0.36 | 0.36 | 71 | 1010.8 |
| 20260510014839 | 28 | 108 | 14.5 | 19.3 | 0.00 | 0.36 | 0.36 | 70 | 1010.8 |
| 20260510014337 | 28 | 109 | 17.7 | 24.1 | 0.00 | 0.36 | 0.36 | 69 | 1010.8 |
| 20260510013832 | 28 | 113 | 14.5 | 17.7 | 0.00 | 0.36 | 0.36 | 68 | 1010.8 |
| 20260510013328 | 28 | 106 | 17.7 | 22.5 | 0.00 | 0.36 | 0.36 | 67 | 1010.8 |
| 20260510012823 | 28 | 109 | 12.9 | 16.1 | 0.00 | 0.36 | 0.36 | 66 | 1010.4 |
| 20260510012323 | 29 | 105 | 12.9 | 16.1 | 0.00 | 0.36 | 0.36 | 66 | 1010.8 |
| 20260510011818 | 29 | 92 | 8.0 | 12.9 | 0.00 | 0.36 | 0.36 | 65 | 1010.4 |
| 20260510011314 | 29 | 98 | 8.0 | 11.3 | 0.00 | 0.36 | 0.36 | 65 | 1010.4 |
| 20260510010811 | 29 | 112 | 9.7 | 9.7 | 0.00 | 0.36 | 0.36 | 64 | 1010.4 |
| 20260510010308 | 29 | 112 | 8.0 | 11.3 | 0.00 | 0.36 | 0.36 | 64 | 1010.4 |
| 20260510005805 | 30 | 84 | 1.6 | 4.8 | 0.00 | 0.36 | 0.36 | 64 | 1010.4 |
| 20260510005301 | 30 | 103 | 8.0 | 11.3 | 0.00 | 0.36 | 0.36 | 63 | 1010.4 |
| 20260510004759 | 30 | 111 | 9.7 | 11.3 | 0.00 | 0.36 | 0.36 | 63 | 1010.4 |
| 20260510004256 | 30 | 117 | 9.7 | 11.3 | 0.00 | 0.36 | 0.36 | 62 | 1010.1 |
| 20260510003753 | 30 | 115 | 8.0 | 11.3 | 0.00 | 0.36 | 0.36 | 61 | 1010.1 |
| 20260510003250 | 30 | 105 | 6.4 | 11.3 | 0.00 | 0.36 | 0.36 | 61 | 1010.1 |
| 20260510002748 | 30 | 99 | 8.0 | 14.5 | 0.00 | 0.36 | 0.36 | 60 | 1010.1 |
| 20260510002246 | 30 | 114 | 4.8 | 6.4 | 0.00 | 0.36 | 0.36 | 60 | 1010.1 |
| 20260510001743 | 30 | 146 | 3.2 | 4.8 | 0.00 | 0.36 | 0.36 | 59 | 1010.1 |
| 20260510001241 | 30 | 91 | 6.4 | 9.7 | 0.00 | 0.36 | 0.36 | 59 | 1010.1 |
| 20260510000737 | 30 | 118 | 9.7 | 11.3 | 0.00 | 0.36 | 0.36 | 59 | 1010.1 |
| 20260510000234 | 30 | 94 | 6.4 | 9.7 | 0.00 | 0.36 | 0.36 | 59 | 1009.7 |
| 20260509235731 | 30 | 104 | 6.4 | 9.7 | 0.00 | 0.36 | 0.36 | 58 | 1009.7 |
| 20260509235227 | 30 | 117 | 8.0 | 12.9 | 0.00 | 0.36 | 0.36 | 57 | 1009.7 |
| 20260509234723 | 30 | 88 | 6.4 | 11.3 | 0.00 | 0.36 | 0.36 | 57 | 1009.7 |
| 20260509234221 | 31 | 111 | 6.4 | 12.9 | 0.00 | 0.36 | 0.36 | 56 | 1009.7 |
| 20260509233719 | 31 | 334 | 0.0 | 0.0 | 0.00 | 0.36 | 0.36 | 55 | 1009.7 |
| 20260509233216 | 30 | 89 | 3.2 | 6.4 | 0.00 | 0.36 | 0.36 | 57 | 1009.7 |
| 20260509232712 | 30 | 114 | 9.7 | 11.3 | 0.00 | 0.36 | 0.36 | 56 | 1009.7 |
| 20260509232209 | 30 | 107 | 14.5 | 17.7 | 0.00 | 0.36 | 0.36 | 57 | 1009.7 |
| 20260509231706 | 30 | 110 | 14.5 | 17.7 | 0.00 | 0.36 | 0.36 | 55 | 1009.7 |
| 20260509231203 | 31 | 105 | 9.7 | 12.9 | 0.00 | 0.36 | 0.36 | 54 | 1009.7 |
| 20260509230701 | 31 | 109 | 9.7 | 11.3 | 0.00 | 0.36 | 0.36 | 51 | 1009.7 |
| 20260509230157 | 31 | 99 | 4.8 | 8.0 | 0.00 | 0.36 | 0.36 | 50 | 1009.7 |
| 20260509225653 | 31 | 98 | 4.8 | 8.0 | 0.00 | 0.36 | 0.36 | 50 | 1009.7 |
| 20260509225148 | 31 | 101 | 4.8 | 9.7 | 0.00 | 0.36 | 0.36 | 50 | 1009.7 |
| 20260509224644 | 31 | 114 | 8.0 | 12.9 | 0.00 | 0.36 | 0.36 | 47 | 1009.7 |
| 20260509224141 | 31 | 77 | 4.8 | 8.0 | 0.00 | 0.36 | 0.36 | 47 | 1009.7 |
| 20260509223638 | 31 | 116 | 9.7 | 12.9 | 0.00 | 0.36 | 0.36 | 47 | 1009.7 |
| 20260509223135 | 31 | 110 | 11.3 | 12.9 | 0.00 | 0.36 | 0.36 | 45 | 1009.7 |
| 20260509222632 | 31 | 118 | 11.3 | 12.9 | 0.00 | 0.36 | 0.36 | 44 | 1009.7 |
| 20260509222127 | 31 | 109 | 6.4 | 9.7 | 0.00 | 0.36 | 0.36 | 43 | 1009.7 |
| 20260509221624 | 31 | 96 | 6.4 | 11.3 | 0.00 | 0.36 | 0.36 | 42 | 1009.4 |
| 20260509221120 | 31 | 102 | 6.4 | 11.3 | 0.00 | 0.36 | 0.36 | 41 | 1009.4 |
| 20260509220616 | 32 | 99 | 3.2 | 6.4 | 0.00 | 0.36 | 0.36 | 41 | 1009.4 |
| 20260509220112 | 32 | 80 | 4.8 | 6.4 | 0.00 | 0.36 | 0.36 | 39 | 1009.4 |
| 20260509215608 | 31 | 94 | 3.2 | 4.8 | 0.00 | 0.36 | 0.36 | 43 | 1009.7 |
| 20260509215105 | 30 | 109 | 6.4 | 8.0 | 0.00 | 0.36 | 0.36 | 42 | 1009.7 |
| 20260509214602 | 30 | 112 | 11.3 | 12.9 | 0.00 | 0.36 | 0.36 | 42 | 1009.7 |
| 20260509214059 | 31 | 107 | 6.4 | 9.7 | 0.00 | 0.36 | 0.36 | 40 | 1009.7 |
| 20260509213555 | 31 | 77 | 0.0 | 9.7 | 0.00 | 0.36 | 0.36 | 41 | 1009.7 |
| 20260509213052 | 30 | 78 | 1.6 | 6.4 | 0.00 | 0.36 | 0.36 | 43 | 1010.1 |
| 20260509212549 | 29 | 75 | 6.4 | 14.5 | 0.00 | 0.36 | 0.36 | 46 | 1010.1 |
| 20260509212046 | 28 | 82 | 4.8 | 6.4 | 0.00 | 0.36 | 0.36 | 50 | 1010.1 |
| 20260509211541 | 27 | 108 | 14.5 | 19.3 | 0.00 | 0.36 | 0.36 | 53 | 1010.4 |
| 20260509211038 | 27 | 125 | 16.1 | 24.1 | 0.00 | 0.36 | 0.36 | 54 | 1010.4 |
| 20260509210536 | 28 | 119 | 8.0 | 16.1 | 0.00 | 0.36 | 0.36 | 53 | 1010.1 |
| 20260509210032 | 27 | 124 | 9.7 | 14.5 | 0.00 | 0.36 | 0.36 | 54 | 1010.1 |
| 20260509205532 | 27 | 96 | 12.9 | 16.1 | 0.00 | 0.36 | 0.36 | 54 | 1010.1 |
| 20260509205027 | 26 | 89 | 11.3 | 17.7 | 0.00 | 0.36 | 0.36 | 60 | 1010.1 |
| 20260509204524 | 25 | 125 | 16.1 | 24.1 | 0.00 | 0.36 | 0.36 | 64 | 1010.4 |
| 20260509204020 | 25 | 125 | 11.3 | 37.0 | 0.00 | 0.36 | 0.36 | 65 | 1010.4 |
| 20260509203516 | 26 | 131 | 19.3 | 29.0 | 0.00 | 0.36 | 0.36 | 63 | 1010.4 |
| 20260509203015 | 25 | 85 | 20.9 | 30.6 | 0.00 | 0.36 | 0.36 | 67 | 1010.4 |
| 20260509202515 | 25 | 106 | 30.6 | 43.5 | 0.00 | 0.36 | 0.36 | 67 | 1010.4 |
| 20260509202010 | 26 | 105 | 25.7 | 30.6 | 1.19 | 0.33 | 0.33 | 57 | 1010.8 |
| 20260509201505 | 26 | 109 | 20.9 | 27.4 | 0.00 | 0.30 | 0.30 | 59 | 1010.8 |
| 20260509201003 | 26 | 239 | 3.2 | 8.0 | 0.00 | 0.28 | 0.28 | 66 | 1011.1 |
| 20260509200458 | 27 | 31 | 3.2 | 4.8 | 2.39 | 0.08 | 0.08 | 70 | 1011.4 |
| 20260509195954 | 28 | 35 | 12.9 | 19.3 | 0.00 | 0.08 | 0.08 | 63 | 1011.1 |
| 20260509195450 | 31 | 37 | 9.7 | 24.1 | 0.00 | 0.08 | 0.08 | 56 | 1011.1 |
| 20260509194949 | 33 | 37 | 0.0 | 0.0 | 0.00 | 0.08 | 0.08 | 55 | 1010.8 |
| 20260509194445 | 32 | 104 | 8.0 | 12.9 | 0.00 | 0.08 | 0.08 | 57 | 1010.8 |
| 20260509193942 | 32 | 113 | 6.4 | 9.7 | 0.00 | 0.08 | 0.08 | 57 | 1010.8 |
| 20260509193442 | 33 | 114 | 8.0 | 11.3 | 0.00 | 0.08 | 0.08 | 53 | 1010.8 |
| 20260509192938 | 33 | 292 | 0.0 | 0.0 | 0.00 | 0.08 | 0.08 | 53 | 1010.8 |
| 20260509192435 | 33 | 90 | 4.8 | 6.4 | 0.00 | 0.08 | 0.08 | 54 | 1010.8 |
| 20260509191930 | 32 | 76 | 4.8 | 6.4 | 0.00 | 0.08 | 0.08 | 56 | 1010.8 |
| 20260509191426 | 33 | 95 | 6.4 | 9.7 | 0.00 | 0.08 | 0.08 | 55 | 1010.8 |
| 20260509190922 | 33 | 94 | 3.2 | 6.4 | 0.00 | 0.08 | 0.08 | 55 | 1011.1 |
| 20260509190419 | 32 | 105 | 6.4 | 8.0 | 0.00 | 0.08 | 0.08 | 56 | 1010.8 |
| 20260509185917 | 32 | 115 | 9.7 | 11.3 | 0.00 | 0.08 | 0.08 | 56 | 1011.1 |
| 20260509185414 | 32 | 238 | 3.2 | 6.4 | 0.00 | 0.08 | 0.08 | 55 | 1011.1 |
| 20260509184911 | 32 | 233 | 3.2 | 6.4 | 0.00 | 0.08 | 0.08 | 56 | 1011.1 |
| 20260509184408 | 33 | 222 | 4.8 | 6.4 | 0.00 | 0.08 | 0.08 | 55 | 1011.1 |
| 20260509183905 | 34 | 108 | 3.2 | 8.0 | 0.00 | 0.08 | 0.08 | 54 | 1011.4 |
| 20260509183359 | 33 | 99 | 0.0 | 1.6 | 0.00 | 0.08 | 0.08 | 56 | 1011.4 |
| 20260509182855 | 32 | 111 | 6.4 | 9.7 | 0.00 | 0.08 | 0.08 | 57 | 1011.8 |
| 20260509182353 | 32 | 95 | 3.2 | 6.4 | 0.00 | 0.08 | 0.08 | 57 | 1011.8 |
| 20260509181850 | 33 | 152 | 1.6 | 4.8 | 0.00 | 0.08 | 0.08 | 56 | 1011.8 |
| 20260509181347 | 32 | 65 | 0.0 | 6.4 | 0.00 | 0.08 | 0.08 | 58 | 1012.1 |
| 20260509180844 | 32 | 182 | 6.4 | 12.9 | 0.00 | 0.08 | 0.08 | 57 | 1012.1 |
| 20260509180340 | 33 | 73 | 4.8 | 8.0 | 0.00 | 0.08 | 0.08 | 56 | 1011.8 |
| 20260509175837 | 32 | 338 | 1.6 | 11.3 | 0.00 | 0.08 | 0.08 | 59 | 1011.8 |
| 20260509175333 | 31 | 324 | 0.0 | 0.0 | 0.00 | 0.08 | 0.08 | 62 | 1012.5 |
| 20260509174829 | 31 | 324 | 0.0 | 0.0 | 0.00 | 0.08 | 0.08 | 63 | 1012.5 |
| 20260509174325 | 30 | 146 | 0.0 | 0.0 | 0.00 | 0.08 | 0.08 | 67 | 1012.5 |
| 20260509173821 | 30 | 116 | 12.9 | 20.9 | 0.00 | 0.08 | 0.08 | 66 | 1012.5 |
| 20260509173317 | 30 | 358 | 3.2 | 8.0 | 0.00 | 0.08 | 0.08 | 67 | 1012.8 |
| 20260509172813 | 30 | 113 | 3.2 | 6.4 | 0.00 | 0.08 | 0.08 | 68 | 1012.5 |
| 20260509172310 | 29 | 165 | 3.2 | 6.4 | 0.00 | 0.08 | 0.08 | 70 | 1012.8 |
| 20260509171806 | 29 | 108 | 3.2 | 9.7 | 0.00 | 0.08 | 0.08 | 70 | 1012.5 |
| 20260509171302 | 28 | 220 | 8.0 | 11.3 | 0.00 | 0.08 | 0.08 | 71 | 1012.5 |
| 20260509170759 | 30 | 227 | 6.4 | 9.7 | 0.00 | 0.08 | 0.08 | 69 | 1012.5 |
| 20260509170255 | 30 | 187 | 6.4 | 9.7 | 0.00 | 0.08 | 0.08 | 69 | 1012.5 |
| 20260509165754 | 29 | 111 | 1.6 | 4.8 | 0.00 | 0.08 | 0.08 | 71 | 1012.5 |
| 20260509165249 | 28 | 156 | 6.4 | 8.0 | 0.00 | 0.08 | 0.08 | 72 | 1012.8 |
| 20260509164745 | 28 | 98 | 0.0 | 3.2 | 0.00 | 0.08 | 0.08 | 73 | 1013.1 |
| 20260509164241 | 27 | 214 | 6.4 | 8.0 | 0.00 | 0.08 | 0.08 | 75 | 1012.8 |
| 20260509163738 | 27 | 225 | 1.6 | 9.7 | 0.00 | 0.08 | 0.08 | 75 | 1012.8 |
| 20260509163235 | 27 | 193 | 3.2 | 6.4 | 0.00 | 0.08 | 0.08 | 77 | 1012.8 |
| 20260509162733 | 27 | 193 | 6.4 | 9.7 | 0.00 | 0.08 | 0.08 | 77 | 1012.8 |
| 20260509162227 | 27 | 173 | 8.0 | 11.3 | 0.00 | 0.08 | 0.08 | 76 | 1012.8 |
| 20260509161723 | 27 | 202 | 0.0 | 3.2 | 0.00 | 0.08 | 0.08 | 78 | 1012.8 |
| 20260509161220 | 27 | 178 | 9.7 | 12.9 | 0.00 | 0.08 | 0.08 | 78 | 1012.8 |
| 20260509160715 | 27 | 116 | 6.4 | 8.0 | 0.00 | 0.08 | 0.08 | 77 | 1012.8 |
| 20260509160211 | 26 | 122 | 4.8 | 9.7 | 0.00 | 0.08 | 0.08 | 80 | 1012.8 |
| 20260509155706 | 26 | 110 | 3.2 | 9.7 | 0.00 | 0.08 | 0.08 | 80 | 1012.8 |
| 20260509155203 | 26 | 191 | 1.6 | 4.8 | 0.00 | 0.08 | 0.08 | 80 | 1012.8 |
| 20260509154659 | 27 | 261 | 6.4 | 8.0 | 0.00 | 0.08 | 0.08 | 78 | 1012.8 |
| 20260509154157 | 26 | 79 | 4.8 | 6.4 | 0.00 | 0.08 | 0.08 | 79 | 1012.8 |
| 20260509153654 | 26 | 119 | 4.8 | 11.3 | 0.00 | 0.08 | 0.08 | 82 | 1012.8 |
| 20260509153150 | 26 | 193 | 4.8 | 11.3 | 0.00 | 0.08 | 0.08 | 84 | 1012.8 |
| 20260509152646 | 26 | 182 | 8.0 | 14.5 | 0.00 | 0.08 | 0.08 | 84 | 1012.8 |
| 20260509152143 | 26 | 67 | 0.0 | 0.0 | 0.00 | 0.08 | 0.08 | 86 | 1012.8 |
| 20260509151639 | 25 | 128 | 6.4 | 9.7 | 0.00 | 0.08 | 0.08 | 89 | 1012.8 |
| 20260509151137 | 25 | 118 | 11.3 | 14.5 | 0.00 | 0.08 | 0.08 | 91 | 1012.8 |
| 20260509150635 | 24 | 105 | 6.4 | 12.9 | 0.00 | 0.08 | 0.08 | 91 | 1012.8 |
| 20260509150133 | 24 | 123 | 8.0 | 11.3 | 0.00 | 0.08 | 0.08 | 92 | 1013.1 |
| 20260509145629 | 23 | 116 | 16.1 | 20.9 | 0.00 | 0.08 | 0.08 | 92 | 1013.1 |
| 20260509145124 | 23 | 117 | 12.9 | 17.7 | 0.00 | 0.08 | 0.08 | 92 | 1012.8 |
| 20260509144621 | 23 | 113 | 8.0 | 16.1 | 0.00 | 0.08 | 0.08 | 92 | 1012.5 |
| 20260509144118 | 23 | 105 | 9.7 | 14.5 | 0.00 | 0.08 | 0.08 | 94 | 1012.8 |
| 20260509143615 | 23 | 122 | 6.4 | 12.9 | 0.00 | 0.08 | 0.08 | 95 | 1012.5 |
| 20260509143113 | 23 | 116 | 11.3 | 17.7 | 0.00 | 0.08 | 0.08 | 95 | 1012.8 |
| 20260509142608 | 23 | 120 | 8.0 | 11.3 | 0.00 | 0.08 | 0.08 | 96 | 1012.8 |
| 20260509142104 | 23 | 101 | 11.3 | 17.7 | 0.00 | 0.08 | 0.08 | 96 | 1012.5 |
| 20260509141600 | 23 | 128 | 14.5 | 19.3 | 0.00 | 0.08 | 0.08 | 96 | 1012.1 |
| 20260509141057 | 23 | 114 | 19.3 | 24.1 | 0.00 | 0.08 | 0.08 | 96 | 1012.5 |
| 20260509140554 | 23 | 112 | 17.7 | 20.9 | 0.00 | 0.05 | 0.05 | 95 | 1012.5 |
| 20260509140052 | 23 | 111 | 14.5 | 19.3 | 0.00 | 0.05 | 0.05 | 95 | 1012.5 |
| 20260509135549 | 23 | 135 | 9.7 | 14.5 | 0.00 | 0.05 | 0.05 | 95 | 1012.8 |
| 20260509135047 | 23 | 165 | 3.2 | 4.8 | 0.00 | 0.05 | 0.05 | 95 | 1012.8 |
| 20260509134543 | 23 | 312 | 1.6 | 3.2 | 0.00 | 0.05 | 0.05 | 95 | 1012.8 |
| 20260509134041 | 23 | 312 | 0.0 | 0.0 | 0.00 | 0.05 | 0.05 | 95 | 1013.1 |
| 20260509133537 | 23 | 312 | 1.6 | 3.2 | 0.00 | 0.05 | 0.05 | 96 | 1013.1 |
| 20260509133035 | 23 | 312 | 0.0 | 0.0 | 0.00 | 0.05 | 0.05 | 96 | 1013.1 |
| 20260509132533 | 23 | 312 | 0.0 | 1.6 | 0.00 | 0.05 | 0.05 | 96 | 1013.1 |
| 20260509132032 | 23 | 312 | 0.0 | 3.2 | 0.00 | 0.05 | 0.05 | 96 | 1013.1 |
| 20260509131527 | 23 | 312 | 3.2 | 6.4 | 0.00 | 0.05 | 0.05 | 97 | 1013.1 |
| 20260509131025 | 22 | 312 | 1.6 | 3.2 | 0.00 | 0.05 | 0.05 | 97 | 1012.8 |
| 20260509130520 | 22 | 312 | 0.0 | 1.6 | 0.00 | 0.05 | 0.05 | 97 | 1012.8 |
| 20260509130017 | 22 | 312 | 4.8 | 6.4 | 0.00 | 0.05 | 0.05 | 97 | 1012.5 |
| 20260509125513 | 22 | 312 | 3.2 | 4.8 | 0.00 | 0.05 | 0.05 | 97 | 1012.5 |
| 20260509125010 | 22 | 312 | 0.0 | 1.6 | 0.00 | 0.05 | 0.05 | 97 | 1012.5 |
| 20260509124507 | 22 | 238 | 0.0 | 3.2 | 0.00 | 0.05 | 0.05 | 97 | 1012.1 |
| 20260509124004 | 22 | 188 | 3.2 | 3.2 | 0.00 | 0.05 | 0.05 | 97 | 1012.5 |
| 20260509123502 | 22 | 188 | 0.0 | 0.0 | 0.00 | 0.05 | 0.05 | 97 | 1012.5 |
| 20260509122957 | 22 | 188 | 0.0 | 0.0 | 0.00 | 0.05 | 0.05 | 97 | 1012.5 |
| 20260509122454 | 22 | 110 | 4.8 | 8.0 | 0.00 | 0.05 | 0.05 | 97 | 1012.5 |
| 20260509121951 | 22 | 356 | 1.6 | 3.2 | 0.00 | 0.05 | 0.05 | 97 | 1012.5 |
| 20260509121448 | 22 | 356 | 0.0 | 0.0 | 0.00 | 0.05 | 0.05 | 96 | 1012.5 |
| 20260509120946 | 22 | 356 | 0.0 | 0.0 | 0.00 | 0.05 | 0.05 | 96 | 1012.8 |
| 20260509120443 | 22 | 356 | 4.8 | 6.4 | 0.00 | 0.05 | 0.05 | 97 | 1012.8 |
| 20260509115941 | 22 | 356 | 0.0 | 0.0 | 0.00 | 0.05 | 0.05 | 97 | 1012.8 |
| 20260509115438 | 22 | 356 | 0.0 | 0.0 | 0.00 | 0.05 | 0.05 | 97 | 1012.8 |
| 20260509114935 | 22 | 356 | 0.0 | 0.0 | 0.00 | 0.05 | 0.05 | 97 | 1012.8 |
| 20260509114434 | 22 | 356 | 0.0 | 1.6 | 0.00 | 0.05 | 0.05 | 97 | 1013.1 |
| 20260509113933 | 22 | 356 | 3.2 | 6.4 | 0.00 | 0.05 | 0.05 | 97 | 1013.1 |
| 20260509113430 | 22 | 356 | 4.8 | 6.4 | 0.00 | 0.05 | 0.05 | 97 | 1013.1 |
| 20260509112927 | 22 | 356 | 4.8 | 4.8 | 0.00 | 0.05 | 0.05 | 97 | 1013.1 |
| 20260509112424 | 22 | 336 | 4.8 | 8.0 | 0.00 | 0.05 | 0.05 | 97 | 1013.5 |
| 20260509111921 | 22 | 334 | 6.4 | 9.7 | 0.00 | 0.05 | 0.05 | 97 | 1013.1 |
| 20260509111418 | 22 | 46 | 0.0 | 0.0 | 0.00 | 0.05 | 0.05 | 97 | 1013.5 |
| 20260509110916 | 22 | 46 | 0.0 | 3.2 | 0.00 | 0.05 | 0.05 | 97 | 1013.5 |
| 20260509110411 | 22 | 46 | 1.6 | 3.2 | 0.00 | 0.05 | 0.05 | 97 | 1013.5 |
| 20260509105910 | 22 | 46 | 0.0 | 3.2 | 0.00 | 0.05 | 0.05 | 97 | 1013.5 |
| 20260509105408 | 22 | 46 | 0.0 | 1.6 | 0.00 | 0.05 | 0.05 | 97 | 1013.5 |
| 20260509104904 | 22 | 346 | 4.8 | 6.4 | 0.00 | 0.05 | 0.05 | 97 | 1013.8 |
| 20260509104401 | 22 | 346 | 4.8 | 6.4 | 0.00 | 0.05 | 0.05 | 97 | 1013.8 |
| 20260509103859 | 22 | 346 | 4.8 | 6.4 | 0.00 | 0.05 | 0.05 | 97 | 1013.8 |
| 20260509103356 | 22 | 355 | 3.2 | 6.4 | 0.00 | 0.05 | 0.05 | 97 | 1013.5 |
| 20260509102855 | 22 | 355 | 3.2 | 6.4 | 0.00 | 0.05 | 0.05 | 97 | 1013.5 |
| 20260509102351 | 22 | 355 | 4.8 | 8.0 | 0.00 | 0.05 | 0.05 | 97 | 1013.5 |
| 20260509101847 | 22 | 356 | 3.2 | 4.8 | 0.00 | 0.05 | 0.05 | 98 | 1013.1 |
| 20260509101343 | 22 | 356 | 0.0 | 0.0 | 0.00 | 0.05 | 0.05 | 98 | 1012.8 |
| 20260509100841 | 22 | 356 | 0.0 | 0.0 | 0.00 | 0.05 | 0.05 | 98 | 1012.5 |
| 20260509100338 | 22 | 356 | 0.0 | 0.0 | 0.00 | 0.05 | 0.05 | 98 | 1012.5 |
| 20260509095835 | 22 | 356 | 0.0 | 0.0 | 0.00 | 0.05 | 0.05 | 98 | 1012.5 |
| 20260509095332 | 22 | 356 | 0.0 | 0.0 | 0.00 | 0.05 | 0.05 | 98 | 1012.5 |
| 20260509094829 | 22 | 356 | 0.0 | 0.0 | 0.00 | 0.05 | 0.05 | 98 | 1012.5 |
| 20260509094326 | 22 | 356 | 0.0 | 0.0 | 0.00 | 0.05 | 0.05 | 98 | 1012.5 |
| 20260509093824 | 22 | 356 | 0.0 | 0.0 | 0.00 | 0.05 | 0.05 | 98 | 1012.5 |
| 20260509093320 | 22 | 356 | 0.0 | 0.0 | 0.00 | 0.05 | 0.05 | 98 | 1012.5 |
| 20260509092819 | 22 | 356 | 0.0 | 0.0 | 0.00 | 0.05 | 0.05 | 97 | 1012.5 |
| 20260509092317 | 22 | 356 | 0.0 | 0.0 | 0.00 | 0.05 | 0.05 | 97 | 1012.5 |
| 20260509091814 | 22 | 356 | 0.0 | 0.0 | 0.00 | 0.05 | 0.05 | 97 | 1012.1 |
| 20260509091311 | 22 | 356 | 0.0 | 0.0 | 0.00 | 0.05 | 0.05 | 97 | 1012.1 |
| 20260509090808 | 22 | 356 | 0.0 | 0.0 | 0.00 | 0.05 | 0.05 | 97 | 1012.1 |
| 20260509090305 | 22 | 356 | 0.0 | 0.0 | 0.00 | 0.05 | 0.05 | 97 | 1012.1 |
| 20260509085803 | 22 | 356 | 0.0 | 0.0 | 0.00 | 0.05 | 0.05 | 97 | 1012.1 |
| 20260509085300 | 22 | 356 | 0.0 | 0.0 | 0.00 | 0.03 | 0.03 | 97 | 1012.1 |
| 20260509084756 | 22 | 356 | 0.0 | 0.0 | 0.00 | 0.03 | 0.03 | 97 | 1012.5 |
| 20260509084253 | 22 | 356 | 0.0 | 0.0 | 0.00 | 0.03 | 0.03 | 97 | 1012.5 |
| 20260509083751 | 22 | 356 | 0.0 | 0.0 | 0.00 | 0.03 | 0.03 | 96 | 1012.5 |
| 20260509083247 | 22 | 356 | 3.2 | 4.8 | 0.00 | 0.03 | 0.03 | 96 | 1012.5 |
| 20260509082744 | 22 | 356 | 0.0 | 1.6 | 1.19 | 0.00 | 0.00 | 96 | 1012.5 |
| 20260509082241 | 22 | 356 | 0.0 | 0.0 | 0.00 | 0.00 | 0.00 | 96 | 1012.8 |
| 20260509081738 | 22 | 356 | 0.0 | 0.0 | 0.00 | 0.00 | 0.00 | 96 | 1012.8 |
| 20260509081235 | 22 | 356 | 3.2 | 3.2 | 0.00 | 0.00 | 0.00 | 96 | 1012.8 |
| 20260509080734 | 22 | 356 | 0.0 | 3.2 | 0.00 | 0.00 | 0.00 | 95 | 1012.5 |
| 20260509080231 | 22 | 0 | 3.2 | 6.4 | 0.00 | 0.00 | 0.00 | 95 | 1012.5 |
| 20260509075729 | 22 | 45 | 3.2 | 6.4 | 0.00 | 0.00 | 0.00 | 95 | 1012.5 |
| 20260509075226 | 22 | 59 | 0.0 | 0.0 | 0.00 | 0.00 | 0.00 | 95 | 1012.5 |
| 20260509074723 | 22 | 59 | 0.0 | 0.0 | 0.00 | 0.00 | 0.00 | 95 | 1012.5 |
| 20260509074221 | 22 | 54 | 1.6 | 3.2 | 0.00 | 0.00 | 0.00 | 95 | 1012.5 |
| 20260509073716 | 22 | 77 | 6.4 | 8.0 | 0.00 | 0.00 | 0.00 | 95 | 1012.5 |
| 20260509073213 | 22 | 88 | 6.4 | 9.7 | 0.00 | 0.00 | 0.00 | 95 | 1012.5 |
| 20260509072709 | 22 | 120 | 3.2 | 4.8 | 0.00 | 0.00 | 0.00 | 95 | 1012.5 |
| 20260509072207 | 22 | 105 | 8.0 | 9.7 | 0.00 | 0.00 | 0.00 | 95 | 1012.5 |
| 20260509071703 | 22 | 106 | 9.7 | 11.3 | 0.00 | 0.00 | 0.00 | 95 | 1012.5 |
| 20260509071201 | 22 | 120 | 4.8 | 8.0 | 0.00 | 0.00 | 0.00 | 95 | 1012.8 |
| 20260509070658 | 22 | 104 | 4.8 | 8.0 | 0.00 | 0.00 | 0.00 | 95 | 1012.8 |
| 20260509070154 | 22 | 98 | 3.2 | 4.8 | 0.00 | 0.00 | 0.00 | 95 | 1012.8 |
| 20260509065650 | 22 | 87 | 1.6 | 8.0 | 0.00 | 0.00 | 0.00 | 95 | 1012.5 |
| 20260509065146 | 22 | 109 | 8.0 | 9.7 | 0.00 | 0.00 | 0.00 | 95 | 1012.5 |
| 20260509064643 | 22 | 133 | 8.0 | 14.5 | 0.00 | 0.00 | 0.00 | 95 | 1012.5 |
| 20260509064141 | 22 | 114 | 11.3 | 12.9 | 0.00 | 0.00 | 0.00 | 94 | 1012.5 |
| 20260509063637 | 22 | 108 | 9.7 | 12.9 | 0.00 | 0.00 | 0.00 | 94 | 1012.5 |
| 20260509063134 | 22 | 129 | 4.8 | 8.0 | 0.00 | 0.00 | 0.00 | 94 | 1012.5 |
| 20260509062631 | 22 | 93 | 12.9 | 16.1 | 0.00 | 0.00 | 0.00 | 94 | 1012.5 |
| 20260509062128 | 22 | 101 | 12.9 | 17.7 | 0.00 | 0.00 | 0.00 | 94 | 1012.5 |
| 20260509061625 | 22 | 105 | 16.1 | 17.7 | 0.00 | 0.00 | 0.00 | 94 | 1012.5 |